MET'MAP v2.0
soon released !

Expected late october,
this new version will be
more efficient, smarter,
and hosted on a brand new
server x3 powerfull...
...and still free !


Not compatible ?
Try the mobile version !

LOG IN : | Subscribe | Disclaimer | Who is Orbifly ? |
ICAO code :

TAF - EDMA Augsburg Airport - 14 Dec 2019 14:01 UTC
Data Sources :     NOAA   


- Airport Elevation : 1516 ft
- IATA code : AGB
- No reported NOTAMs.


EDMA - Augsburg Airport

Latest METAR recorded : 2015/08/11 08:20 EDMA 110820Z 33005KT 280V030 CAVOK 24/17 Q1017 RMK ATIS YAN
TAF TAF EDMA
Valid from the 14 at 12:00 until the 14 at 21:00 UTC


141100Z 1412/1421 26020G30KT 9999 BKN040
PROB40
TEMPO 1412/1414 26025G45KT SHRA SCT012TCU BKN020
BECMG 1415/1417 23015G25KT
BECMG 1419/1421 23015KT

Source NOAA


MET'MAP, your aeronautical weather chart ! - Copyright ORBIFLY December 2007

Programming & Development : Alexandra Zaïnal
Co-Developer : Marc-Olivier Méhu
Technical & hardware support : Manuel Goepfert
Concept & Financing : Baudouin d'Aumeries